sensor_id;sensor_type;location;lat;lon;timestamp;P1;durP1;ratioP1;P2;durP2;ratioP2
63581;SDS011;49727;51.078;17.066;2023-11-19T00:09:03;24.63;;;12.85;;
63581;SDS011;49727;51.078;17.066;2023-11-19T00:24:04;21.88;;;12.93;;
63581;SDS011;49727;51.078;17.066;2023-11-19T00:39:04;22.98;;;13.80;;
63581;SDS011;49727;51.078;17.066;2023-11-19T00:54:05;28.83;;;15.82;;
63581;SDS011;49727;51.078;17.066;2023-11-19T01:09:06;29.35;;;14.88;;
63581;SDS011;49727;51.078;17.066;2023-11-19T01:24:08;27.65;;;15.63;;
63581;SDS011;49727;51.078;17.066;2023-11-19T01:39:09;25.33;;;14.55;;
63581;SDS011;49727;51.078;17.066;2023-11-19T01:54:10;28.63;;;14.43;;
63581;SDS011;49727;51.078;17.066;2023-11-19T02:09:11;25.50;;;14.18;;
63581;SDS011;49727;51.078;17.066;2023-11-19T02:24:12;30.67;;;14.80;;
63581;SDS011;49727;51.078;17.066;2023-11-19T02:39:15;28.90;;;14.25;;
63581;SDS011;49727;51.078;17.066;2023-11-19T02:54:20;27.70;;;14.52;;
63581;SDS011;49727;51.078;17.066;2023-11-19T03:09:26;31.63;;;15.35;;
63581;SDS011;49727;51.078;17.066;2023-11-19T03:24:28;29.88;;;14.38;;
63581;SDS011;49727;51.078;17.066;2023-11-19T03:39:28;24.73;;;13.73;;
63581;SDS011;49727;51.078;17.066;2023-11-19T03:54:29;22.52;;;13.85;;
63581;SDS011;49727;51.078;17.066;2023-11-19T04:09:29;26.23;;;14.10;;
63581;SDS011;49727;51.078;17.066;2023-11-19T04:24:30;23.73;;;12.65;;
63581;SDS011;49727;51.078;17.066;2023-11-19T04:39:30;27.52;;;14.07;;
63581;SDS011;49727;51.078;17.066;2023-11-19T04:54:31;26.00;;;13.07;;
63581;SDS011;49727;51.078;17.066;2023-11-19T05:09:31;19.98;;;10.63;;
63581;SDS011;49727;51.078;17.066;2023-11-19T05:24:31;19.48;;;11.27;;
63581;SDS011;49727;51.078;17.066;2023-11-19T05:39:32;24.73;;;11.50;;
63581;SDS011;49727;51.078;17.066;2023-11-19T05:54:32;16.75;;;9.68;;
63581;SDS011;49727;51.078;17.066;2023-11-19T06:09:38;17.50;;;10.48;;
63581;SDS011;49727;51.078;17.066;2023-11-19T06:24:40;15.77;;;9.25;;
63581;SDS011;49727;51.078;17.066;2023-11-19T06:39:40;17.88;;;10.98;;
63581;SDS011;49727;51.078;17.066;2023-11-19T06:54:40;13.45;;;8.48;;
63581;SDS011;49727;51.078;17.066;2023-11-19T07:09:41;12.90;;;7.25;;
63581;SDS011;49727;51.078;17.066;2023-11-19T07:24:41;15.13;;;7.70;;
63581;SDS011;49727;51.078;17.066;2023-11-19T07:39:43;11.88;;;6.68;;
63581;SDS011;49727;51.078;17.066;2023-11-19T07:54:44;18.80;;;8.25;;
63581;SDS011;49727;51.078;17.066;2023-11-19T08:09:44;14.25;;;7.82;;
63581;SDS011;49727;51.078;17.066;2023-11-19T08:24:45;15.52;;;8.63;;
63581;SDS011;49727;51.078;17.066;2023-11-19T08:39:45;12.90;;;7.65;;
63581;SDS011;49727;51.078;17.066;2023-11-19T08:54:46;12.02;;;7.15;;
63581;SDS011;49727;51.078;17.066;2023-11-19T09:09:46;14.68;;;8.50;;
63581;SDS011;49727;51.078;17.066;2023-11-19T09:24:47;15.77;;;8.73;;
63581;SDS011;49727;51.078;17.066;2023-11-19T09:39:48;14.48;;;7.32;;
63581;SDS011;49727;51.078;17.066;2023-11-19T09:54:48;15.52;;;7.95;;
63581;SDS011;49727;51.078;17.066;2023-11-19T10:09:49;11.68;;;5.72;;
63581;SDS011;49727;51.078;17.066;2023-11-19T10:24:49;12.20;;;7.15;;
63581;SDS011;49727;51.078;17.066;2023-11-19T10:39:52;14.23;;;8.32;;
63581;SDS011;49727;51.078;17.066;2023-11-19T10:54:54;13.30;;;7.78;;
63581;SDS011;49727;51.078;17.066;2023-11-19T11:10:01;10.88;;;6.22;;
63581;SDS011;49727;51.078;17.066;2023-11-19T11:25:08;5.20;;;3.15;;
63581;SDS011;49727;51.078;17.066;2023-11-19T11:40:19;4.82;;;2.15;;
63581;SDS011;49727;51.078;17.066;2023-11-19T11:55:23;4.53;;;2.47;;
63581;SDS011;49727;51.078;17.066;2023-11-19T12:10:24;5.13;;;2.70;;
63581;SDS011;49727;51.078;17.066;2023-11-19T12:25:25;6.13;;;3.42;;
63581;SDS011;49727;51.078;17.066;2023-11-19T12:40:25;6.38;;;3.47;;
63581;SDS011;49727;51.078;17.066;2023-11-19T12:55:26;7.63;;;4.15;;
63581;SDS011;49727;51.078;17.066;2023-11-19T13:10:33;8.67;;;4.37;;
63581;SDS011;49727;51.078;17.066;2023-11-19T13:25:50;9.43;;;5.77;;
63581;SDS011;49727;51.078;17.066;2023-11-19T13:40:51;8.50;;;5.07;;
63581;SDS011;49727;51.078;17.066;2023-11-19T13:55:51;9.30;;;5.18;;
63581;SDS011;49727;51.078;17.066;2023-11-19T14:10:51;13.48;;;6.05;;
63581;SDS011;49727;51.078;17.066;2023-11-19T14:25:55;7.83;;;4.07;;
63581;SDS011;49727;51.078;17.066;2023-11-19T14:40:55;8.68;;;4.35;;
63581;SDS011;49727;51.078;17.066;2023-11-19T14:55:55;9.85;;;3.67;;
63581;SDS011;49727;51.078;17.066;2023-11-19T15:10:56;9.85;;;4.18;;
63581;SDS011;49727;51.078;17.066;2023-11-19T15:25:58;17.37;;;4.20;;
63581;SDS011;49727;51.078;17.066;2023-11-19T15:40:58;10.52;;;4.15;;
63581;SDS011;49727;51.078;17.066;2023-11-19T15:55:59;18.10;;;5.78;;
63581;SDS011;49727;51.078;17.066;2023-11-19T16:10:59;9.63;;;4.00;;
63581;SDS011;49727;51.078;17.066;2023-11-19T16:25:59;7.25;;;4.07;;
63581;SDS011;49727;51.078;17.066;2023-11-19T16:41:00;13.07;;;4.20;;
63581;SDS011;49727;51.078;17.066;2023-11-19T16:56:00;12.32;;;5.20;;
63581;SDS011;49727;51.078;17.066;2023-11-19T17:11:01;9.57;;;4.30;;
63581;SDS011;49727;51.078;17.066;2023-11-19T17:26:03;12.73;;;4.90;;
63581;SDS011;49727;51.078;17.066;2023-11-19T17:41:05;8.23;;;4.33;;
63581;SDS011;49727;51.078;17.066;2023-11-19T17:56:06;11.18;;;5.30;;
63581;SDS011;49727;51.078;17.066;2023-11-19T18:11:06;13.57;;;6.03;;
63581;SDS011;49727;51.078;17.066;2023-11-19T18:26:10;8.63;;;5.17;;
63581;SDS011;49727;51.078;17.066;2023-11-19T18:41:11;15.48;;;8.60;;
63581;SDS011;49727;51.078;17.066;2023-11-19T18:56:13;12.20;;;5.67;;
63581;SDS011;49727;51.078;17.066;2023-11-19T19:11:14;9.50;;;4.23;;
63581;SDS011;49727;51.078;17.066;2023-11-19T19:26:14;11.25;;;4.53;;
63581;SDS011;49727;51.078;17.066;2023-11-19T19:41:14;10.98;;;4.18;;
63581;SDS011;49727;51.078;17.066;2023-11-19T19:56:15;15.13;;;4.82;;
63581;SDS011;49727;51.078;17.066;2023-11-19T20:11:16;6.53;;;4.15;;
63581;SDS011;49727;51.078;17.066;2023-11-19T20:26:17;8.63;;;4.40;;
63581;SDS011;49727;51.078;17.066;2023-11-19T20:41:21;8.40;;;3.80;;
63581;SDS011;49727;51.078;17.066;2023-11-19T20:56:22;11.40;;;3.53;;
63581;SDS011;49727;51.078;17.066;2023-11-19T21:11:23;14.53;;;4.07;;
63581;SDS011;49727;51.078;17.066;2023-11-19T21:26:23;13.02;;;3.13;;
63581;SDS011;49727;51.078;17.066;2023-11-19T21:41:24;10.07;;;2.72;;
63581;SDS011;49727;51.078;17.066;2023-11-19T21:56:24;7.82;;;1.88;;
63581;SDS011;49727;51.078;17.066;2023-11-19T22:11:25;9.05;;;2.00;;
63581;SDS011;49727;51.078;17.066;2023-11-19T22:26:27;9.13;;;2.50;;
63581;SDS011;49727;51.078;17.066;2023-11-19T22:41:27;6.30;;;1.73;;
63581;SDS011;49727;51.078;17.066;2023-11-19T22:56:28;12.32;;;3.15;;
63581;SDS011;49727;51.078;17.066;2023-11-19T23:11:28;11.90;;;3.38;;
63581;SDS011;49727;51.078;17.066;2023-11-19T23:26:29;12.45;;;3.78;;
63581;SDS011;49727;51.078;17.066;2023-11-19T23:41:29;12.95;;;3.28;;
63581;SDS011;49727;51.078;17.066;2023-11-19T23:56:29;10.10;;;2.75;;
